createdAt,value
2023-05-17T00:00:03.991Z,48.10
2023-05-17T00:01:03.963Z,48.10
2023-05-17T00:02:03.977Z,48.14
2023-05-17T00:03:04.023Z,48.14
2023-05-17T00:04:03.992Z,48.11
2023-05-17T00:05:03.946Z,48.11
2023-05-17T00:06:04.068Z,48.13
2023-05-17T00:07:03.957Z,48.14
2023-05-17T00:08:03.955Z,48.15
2023-05-17T00:09:03.964Z,48.12
2023-05-17T00:10:03.930Z,48.11
2023-05-17T00:11:03.927Z,48.12
2023-05-17T00:12:03.912Z,48.11
2023-05-17T00:13:04.444Z,48.10
2023-05-17T00:14:03.896Z,48.10
2023-05-17T00:15:03.889Z,48.13
2023-05-17T00:16:03.873Z,48.14
2023-05-17T00:17:03.916Z,48.15
2023-05-17T00:18:04.006Z,48.15
2023-05-17T00:19:04.019Z,48.14
2023-05-17T00:20:03.971Z,48.14
2023-05-17T00:21:03.980Z,48.19
2023-05-17T00:22:04.093Z,48.14
2023-05-17T00:23:04.055Z,48.06
2023-05-17T00:24:04.086Z,47.99
2023-05-17T00:25:04.177Z,47.90
2023-05-17T00:26:04.167Z,47.89
2023-05-17T00:27:04.221Z,47.82
2023-05-17T00:28:04.239Z,47.71
2023-05-17T00:29:04.302Z,47.61
2023-05-17T00:30:04.278Z,47.63
2023-05-17T00:31:04.355Z,47.66
2023-05-17T00:32:04.364Z,47.74
2023-05-17T00:33:04.564Z,47.77
2023-05-17T00:34:04.484Z,47.81
2023-05-17T00:35:04.569Z,47.83
2023-05-17T00:36:04.596Z,47.80
2023-05-17T00:37:04.572Z,47.81
2023-05-17T00:38:04.686Z,47.78
2023-05-17T00:39:04.651Z,47.76
2023-05-17T00:40:04.702Z,47.67
2023-05-17T00:41:04.733Z,47.65
2023-05-17T00:42:04.771Z,47.64
2023-05-17T00:43:04.978Z,47.63
2023-05-17T00:44:04.839Z,47.66
2023-05-17T00:45:04.895Z,47.67
2023-05-17T00:46:04.926Z,47.73
2023-05-17T00:47:05.004Z,47.73
2023-05-17T00:48:05.592Z,47.75
2023-05-17T00:49:05.033Z,47.47
2023-05-17T00:50:05.114Z,47.30
2023-05-17T00:51:05.093Z,47.23
2023-05-17T00:52:05.148Z,47.24
2023-05-17T00:53:05.458Z,47.21
2023-05-17T00:54:05.368Z,47.20
2023-05-17T00:55:05.344Z,47.20
2023-05-17T00:56:05.300Z,47.21
2023-05-17T00:57:05.380Z,47.21
2023-05-17T00:58:05.425Z,47.16
2023-05-17T00:59:05.420Z,47.09
2023-05-17T01:00:05.442Z,47.10
2023-05-17T01:01:05.546Z,47.04
2023-05-17T01:02:05.515Z,47.03
2023-05-17T01:03:05.634Z,47.08
2023-05-17T01:04:05.731Z,47.01
2023-05-17T01:05:05.761Z,47.07
2023-05-17T01:06:05.710Z,47.02
2023-05-17T01:07:05.760Z,47.00
2023-05-17T01:08:05.791Z,46.90
2023-05-17T01:09:05.881Z,46.80
2023-05-17T01:10:05.971Z,46.85
2023-05-17T01:11:05.943Z,46.90
2023-05-17T01:12:05.982Z,46.87
2023-05-17T01:13:06.036Z,46.82
2023-05-17T01:14:06.084Z,46.75
2023-05-17T01:15:06.103Z,46.71
2023-05-17T01:16:06.156Z,46.65
2023-05-17T01:17:06.218Z,46.61
2023-05-17T01:18:06.371Z,46.57
2023-05-17T01:19:06.402Z,46.55
2023-05-17T01:20:06.535Z,46.57
2023-05-17T01:21:06.393Z,46.58
2023-05-17T01:22:06.428Z,46.58
2023-05-17T01:23:06.521Z,46.54
2023-05-17T01:24:06.568Z,46.53
2023-05-17T01:25:06.621Z,46.48
2023-05-17T01:26:06.799Z,46.43
2023-05-17T01:27:06.701Z,46.36
2023-05-17T01:28:06.762Z,46.29
2023-05-17T01:29:06.795Z,46.25
2023-05-17T01:30:06.866Z,46.25
2023-05-17T01:31:06.891Z,46.32
2023-05-17T01:32:06.945Z,46.30
2023-05-17T01:33:07.012Z,46.25
2023-05-17T01:34:07.017Z,46.29
2023-05-17T01:35:07.047Z,46.24
2023-05-17T01:36:07.117Z,46.24
2023-05-17T01:37:07.161Z,46.27
2023-05-17T01:38:07.234Z,46.28
2023-05-17T01:39:07.281Z,46.22
2023-05-17T01:40:07.307Z,46.18
2023-05-17T01:41:07.355Z,46.02
2023-05-17T01:42:07.506Z,45.96
2023-05-17T01:43:07.438Z,45.99
2023-05-17T01:44:07.509Z,45.91
2023-05-17T01:45:07.559Z,45.80
2023-05-17T01:46:07.616Z,45.81
2023-05-17T01:47:07.677Z,45.67
2023-05-17T01:48:07.779Z,45.65
2023-05-17T01:49:07.780Z,45.62
2023-05-17T01:50:07.834Z,45.58
2023-05-17T01:51:07.900Z,45.50
2023-05-17T01:52:07.903Z,45.35
2023-05-17T01:53:07.987Z,45.30
2023-05-17T01:54:08.023Z,45.26
2023-05-17T01:55:08.082Z,45.15
2023-05-17T01:56:08.123Z,45.05
2023-05-17T01:57:08.182Z,44.96
2023-05-17T01:58:08.300Z,44.77
2023-05-17T01:59:08.260Z,44.70
2023-05-17T02:00:08.301Z,44.67
2023-05-17T02:01:08.422Z,44.67
2023-05-17T02:02:08.424Z,44.62
2023-05-17T02:03:08.462Z,44.56
2023-05-17T02:04:08.586Z,44.55
2023-05-17T02:05:08.574Z,44.47
2023-05-17T02:06:08.599Z,44.48
2023-05-17T02:07:08.659Z,44.45
2023-05-17T02:08:08.676Z,44.37
2023-05-17T02:09:08.739Z,44.23
2023-05-17T02:10:08.809Z,44.10
2023-05-17T02:11:08.799Z,44.03
2023-05-17T02:12:08.835Z,44.10
2023-05-17T02:13:08.848Z,44.04
2023-05-17T02:14:08.951Z,44.04
2023-05-17T02:15:08.911Z,44.01
2023-05-17T02:16:08.987Z,43.93
2023-05-17T02:17:09.029Z,43.91
2023-05-17T02:18:09.195Z,43.96
2023-05-17T02:19:09.182Z,43.98
2023-05-17T02:20:09.125Z,44.14
2023-05-17T02:21:09.145Z,44.15
2023-05-17T02:22:09.176Z,44.23
2023-05-17T02:23:09.221Z,44.32
2023-05-17T02:24:09.255Z,44.35
2023-05-17T02:25:09.290Z,44.38
2023-05-17T02:26:09.339Z,44.34
2023-05-17T02:27:09.365Z,44.29
2023-05-17T02:28:09.417Z,44.18
2023-05-17T02:29:09.465Z,44.18
2023-05-17T02:30:09.517Z,44.20
2023-05-17T02:31:09.523Z,44.27
2023-05-17T02:32:09.525Z,44.28
2023-05-17T02:33:09.630Z,44.34
2023-05-17T02:34:09.609Z,44.36
2023-05-17T02:35:09.594Z,44.37
2023-05-17T02:36:09.621Z,44.37
2023-05-17T02:37:09.689Z,44.40
2023-05-17T02:38:09.713Z,44.42
2023-05-17T02:39:09.737Z,44.48
2023-05-17T02:40:09.841Z,44.47
2023-05-17T02:41:09.899Z,44.48
2023-05-17T02:42:09.823Z,44.51
2023-05-17T02:43:09.894Z,44.49
2023-05-17T02:44:09.924Z,44.46
2023-05-17T02:45:09.949Z,44.49
2023-05-17T02:46:10.225Z,44.48
2023-05-17T02:47:10.068Z,44.48
2023-05-17T02:48:10.600Z,44.51
2023-05-17T02:49:10.026Z,44.51
2023-05-17T02:50:10.009Z,44.48
2023-05-17T02:51:10.027Z,44.48
2023-05-17T02:52:10.020Z,44.46
2023-05-17T02:53:10.093Z,44.45
2023-05-17T02:54:10.057Z,44.41
2023-05-17T02:55:10.133Z,44.42
2023-05-17T02:56:10.121Z,44.43
2023-05-17T02:57:10.132Z,44.40
2023-05-17T02:58:10.148Z,44.42
2023-05-17T02:59:10.135Z,44.44
2023-05-17T03:00:10.169Z,44.43
2023-05-17T03:01:10.181Z,44.42
2023-05-17T03:02:10.301Z,44.40
2023-05-17T03:03:10.335Z,44.38
2023-05-17T03:04:10.364Z,44.34
2023-05-17T03:05:10.226Z,44.40
2023-05-17T03:06:10.246Z,44.42
2023-05-17T03:07:10.329Z,44.44
2023-05-17T03:08:10.276Z,44.46
2023-05-17T03:09:10.264Z,44.44
2023-05-17T03:10:10.282Z,44.46
2023-05-17T03:11:10.308Z,44.49
2023-05-17T03:12:10.328Z,44.50
2023-05-17T03:13:10.336Z,44.50
2023-05-17T03:14:10.341Z,44.55
2023-05-17T03:15:10.363Z,44.54
2023-05-17T03:16:10.400Z,44.51
2023-05-17T03:17:10.421Z,44.47
2023-05-17T03:18:10.500Z,44.50
2023-05-17T03:19:10.552Z,44.46
2023-05-17T03:20:10.454Z,44.42
2023-05-17T03:21:10.506Z,44.41
2023-05-17T03:22:10.473Z,44.42
2023-05-17T03:23:10.480Z,44.48
2023-05-17T03:24:10.528Z,44.47
2023-05-17T03:25:10.534Z,44.51
2023-05-17T03:26:10.529Z,44.55
2023-05-17T03:27:10.563Z,44.60
2023-05-17T03:28:11.002Z,44.59
2023-05-17T03:29:10.613Z,44.55
2023-05-17T03:30:10.584Z,44.57
2023-05-17T03:31:10.703Z,44.57
2023-05-17T03:32:10.648Z,44.58
2023-05-17T03:33:11.026Z,44.55
2023-05-17T03:34:10.772Z,44.61
2023-05-17T03:35:10.707Z,44.54
2023-05-17T03:36:10.720Z,44.56
2023-05-17T03:37:10.709Z,44.52
2023-05-17T03:38:11.015Z,44.53
2023-05-17T03:39:10.770Z,44.57
2023-05-17T03:40:10.847Z,44.59
2023-05-17T03:41:10.831Z,44.63
2023-05-17T03:42:10.849Z,44.68
2023-05-17T03:43:10.873Z,44.71
2023-05-17T03:44:10.927Z,44.72
2023-05-17T03:45:10.952Z,44.78
2023-05-17T03:46:10.935Z,44.77
2023-05-17T03:47:10.988Z,44.78
2023-05-17T03:48:11.029Z,44.82
2023-05-17T03:49:11.199Z,44.82
2023-05-17T03:50:11.126Z,44.82
2023-05-17T03:51:11.061Z,44.83
2023-05-17T03:52:11.083Z,44.88
2023-05-17T03:53:11.546Z,44.94
2023-05-17T03:54:11.170Z,44.97
2023-05-17T03:55:11.145Z,44.97
2023-05-17T03:56:11.200Z,44.94
2023-05-17T03:57:11.205Z,44.96
2023-05-17T03:58:11.260Z,44.98
2023-05-17T03:59:11.233Z,44.98
2023-05-17T04:00:11.256Z,44.98
2023-05-17T04:01:11.287Z,44.99
2023-05-17T04:02:11.302Z,44.98
2023-05-17T04:03:11.333Z,45.01
2023-05-17T04:04:11.405Z,45.07
2023-05-17T04:05:11.402Z,45.10
2023-05-17T04:06:11.486Z,45.14
2023-05-17T04:07:11.447Z,45.14
2023-05-17T04:08:11.448Z,45.15
2023-05-17T04:09:11.438Z,45.19
2023-05-17T04:10:11.498Z,45.15
2023-05-17T04:11:11.520Z,45.20
2023-05-17T04:12:11.505Z,45.21
2023-05-17T04:13:11.557Z,45.24
2023-05-17T04:14:11.563Z,45.30
2023-05-17T04:15:11.597Z,45.32
2023-05-17T04:16:11.642Z,45.33
2023-05-17T04:17:11.648Z,45.39
2023-05-17T04:18:11.781Z,45.40
2023-05-17T04:19:11.748Z,45.41
2023-05-17T04:20:11.743Z,45.46
2023-05-17T04:21:11.721Z,45.42
2023-05-17T04:22:11.819Z,45.37
2023-05-17T04:23:11.747Z,45.32
2023-05-17T04:24:11.793Z,45.32
2023-05-17T04:25:11.868Z,45.35
2023-05-17T04:26:11.870Z,45.34
2023-05-17T04:27:11.877Z,45.33
2023-05-17T04:28:11.931Z,45.34
2023-05-17T04:29:11.938Z,45.29
2023-05-17T04:30:11.952Z,45.32
2023-05-17T04:31:11.968Z,45.30
2023-05-17T04:32:11.984Z,45.34
2023-05-17T04:33:14.104Z,45.31
2023-05-17T04:34:12.155Z,45.29
2023-05-17T04:35:12.061Z,45.23
2023-05-17T04:36:12.086Z,45.21
2023-05-17T04:37:12.075Z,45.24
2023-05-17T04:38:12.206Z,45.20
2023-05-17T04:39:12.135Z,45.15
2023-05-17T04:40:12.131Z,45.15
2023-05-17T04:41:12.175Z,45.17
2023-05-17T04:42:12.180Z,45.15
2023-05-17T04:43:12.237Z,45.11
2023-05-17T04:44:12.250Z,45.08
2023-05-17T04:45:13.459Z,45.07
2023-05-17T04:46:12.271Z,45.08
2023-05-17T04:47:12.237Z,45.14
2023-05-17T04:48:12.323Z,45.11
2023-05-17T04:49:12.237Z,45.10
2023-05-17T04:50:12.236Z,45.12
2023-05-17T04:51:12.246Z,45.10
2023-05-17T04:52:12.210Z,45.15
2023-05-17T04:53:12.224Z,45.20
2023-05-17T04:54:12.329Z,45.18
2023-05-17T04:55:12.226Z,45.24
2023-05-17T04:56:12.187Z,45.24
2023-05-17T04:57:12.164Z,45.31
2023-05-17T04:58:12.194Z,45.28
2023-05-17T04:59:12.154Z,45.29
2023-05-17T05:00:12.143Z,45.29
2023-05-17T05:01:12.157Z,46.09
2023-05-17T05:02:12.115Z,46.68
2023-05-17T05:03:12.244Z,47.62
2023-05-17T05:04:12.240Z,47.78
2023-05-17T05:05:12.196Z,47.98
2023-05-17T05:06:12.100Z,47.25
2023-05-17T05:07:12.091Z,47.02
2023-05-17T05:08:12.110Z,46.71
2023-05-17T05:09:12.054Z,46.62
2023-05-17T05:10:12.135Z,46.71
2023-05-17T05:11:12.174Z,46.77
2023-05-17T05:12:12.087Z,46.80
2023-05-17T05:13:12.061Z,46.75
2023-05-17T05:14:12.032Z,46.68
2023-05-17T05:15:12.032Z,46.56
2023-05-17T05:16:12.048Z,46.40
2023-05-17T05:17:12.025Z,46.36
2023-05-17T05:18:12.105Z,46.28
2023-05-17T05:19:12.265Z,46.19
2023-05-17T05:20:12.049Z,46.11
2023-05-17T05:21:11.968Z,46.04
2023-05-17T05:22:11.987Z,45.92
2023-05-17T05:23:12.021Z,45.91
2023-05-17T05:24:11.959Z,45.87
2023-05-17T05:25:11.965Z,45.85
2023-05-17T05:26:12.160Z,45.81
2023-05-17T05:27:11.933Z,45.78
2023-05-17T05:28:11.928Z,45.81
2023-05-17T05:29:11.944Z,45.76
2023-05-17T05:30:11.944Z,45.69
2023-05-17T05:31:11.919Z,45.60
2023-05-17T05:32:11.900Z,45.60
2023-05-17T05:33:11.982Z,45.56
2023-05-17T05:34:11.987Z,45.52
2023-05-17T05:35:11.889Z,45.50
2023-05-17T05:36:11.884Z,45.52
2023-05-17T05:37:11.867Z,45.43
2023-05-17T05:38:11.868Z,45.33
2023-05-17T05:39:11.858Z,45.27
2023-05-17T05:40:11.856Z,45.32
2023-05-17T05:41:11.842Z,45.31
2023-05-17T05:42:11.888Z,45.29
2023-05-17T05:43:11.840Z,45.27
2023-05-17T05:44:11.823Z,45.25
2023-05-17T05:45:11.794Z,45.22
2023-05-17T05:46:11.822Z,45.17
2023-05-17T05:47:11.798Z,45.26
2023-05-17T05:48:11.899Z,45.46
2023-05-17T05:49:11.752Z,45.45
2023-05-17T05:50:11.785Z,45.41
2023-05-17T05:51:11.796Z,45.21
2023-05-17T05:52:11.913Z,44.91
2023-05-17T05:53:18.834Z,44.98
2023-05-17T05:54:12.920Z,44.91
2023-05-17T05:55:11.895Z,45.11
2023-05-17T05:56:11.873Z,45.22
2023-05-17T05:57:11.900Z,45.25
2023-05-17T05:58:11.907Z,45.21
2023-05-17T05:59:11.895Z,45.13
2023-05-17T06:00:11.869Z,45.03
2023-05-17T06:01:11.924Z,45.03
2023-05-17T06:02:11.851Z,44.95
2023-05-17T06:03:11.861Z,44.88
2023-05-17T06:04:11.889Z,44.85
2023-05-17T06:05:12.098Z,44.79
2023-05-17T06:06:12.095Z,44.79
2023-05-17T06:07:12.011Z,44.71
2023-05-17T06:08:12.067Z,44.50
2023-05-17T06:09:12.107Z,44.43
2023-05-17T06:10:12.160Z,44.32
2023-05-17T06:11:12.144Z,44.27
2023-05-17T06:12:12.207Z,44.25
2023-05-17T06:13:12.269Z,44.20
2023-05-17T06:14:12.358Z,44.04
2023-05-17T06:15:12.308Z,43.93
2023-05-17T06:16:12.398Z,43.87
2023-05-17T06:17:12.414Z,43.81
2023-05-17T06:18:12.573Z,43.76
2023-05-17T06:19:12.581Z,43.71
2023-05-17T06:20:12.562Z,43.71
2023-05-17T06:21:12.599Z,43.67
2023-05-17T06:22:12.621Z,43.61
2023-05-17T06:23:12.685Z,43.57
2023-05-17T06:24:12.678Z,43.40
2023-05-17T06:25:12.744Z,43.38
2023-05-17T06:26:12.805Z,43.44
2023-05-17T06:27:12.808Z,43.44
2023-05-17T06:28:12.857Z,43.36
2023-05-17T06:29:12.919Z,43.26
2023-05-17T06:30:13.028Z,43.14
2023-05-17T06:31:13.011Z,43.11
2023-05-17T06:32:13.067Z,43.11
2023-05-17T06:33:13.137Z,43.04
2023-05-17T06:34:13.131Z,43.03
2023-05-17T06:35:13.171Z,43.01
2023-05-17T06:36:13.170Z,43.00
2023-05-17T06:37:13.233Z,42.93
2023-05-17T06:38:13.239Z,42.84
2023-05-17T06:39:13.299Z,42.76
2023-05-17T06:41:13.343Z,42.81
2023-05-17T06:42:13.388Z,42.75
2023-05-17T06:43:13.422Z,42.72
2023-05-17T06:44:13.480Z,42.67
2023-05-17T06:45:13.494Z,42.65
2023-05-17T06:46:13.626Z,42.54
2023-05-17T06:47:13.569Z,42.46
2023-05-17T06:48:13.731Z,42.44
2023-05-17T06:49:13.674Z,42.42
2023-05-17T06:50:13.649Z,42.50
2023-05-17T06:51:13.683Z,42.64
2023-05-17T06:52:13.736Z,42.61
2023-05-17T06:53:13.768Z,42.61
2023-05-17T06:54:13.823Z,42.85
2023-05-17T06:55:13.849Z,42.95
2023-05-17T06:56:13.898Z,43.27
2023-05-17T06:57:13.926Z,43.27
2023-05-17T06:58:13.905Z,43.37
2023-05-17T06:59:13.955Z,43.64
2023-05-17T07:00:14.000Z,44.07
2023-05-17T07:01:14.026Z,44.02
2023-05-17T07:02:14.075Z,44.16
2023-05-17T07:03:14.133Z,45.00
2023-05-17T07:04:14.322Z,45.59
2023-05-17T07:05:14.150Z,45.92
2023-05-17T07:06:14.155Z,46.01
2023-05-17T07:07:14.208Z,46.36
2023-05-17T07:08:14.555Z,46.48
2023-05-17T07:09:14.239Z,46.85
2023-05-17T07:10:14.284Z,46.84
2023-05-17T07:11:14.277Z,46.97
2023-05-17T07:12:14.269Z,46.99
2023-05-17T07:13:14.549Z,47.16
2023-05-17T07:14:14.349Z,47.11
2023-05-17T07:15:14.538Z,47.31
2023-05-17T07:16:14.467Z,47.38
2023-05-17T07:17:14.522Z,47.58
2023-05-17T07:18:15.238Z,47.61
2023-05-17T07:19:14.703Z,47.63
2023-05-17T07:20:14.752Z,47.78
2023-05-17T07:21:14.711Z,48.49
2023-05-17T07:22:14.759Z,48.25
2023-05-17T07:23:15.063Z,47.40
2023-05-17T07:24:14.883Z,47.99
2023-05-17T07:25:14.893Z,47.14
2023-05-17T07:26:14.900Z,46.63
2023-05-17T07:27:15.024Z,46.96
2023-05-17T07:28:15.063Z,46.55
2023-05-17T07:29:15.026Z,46.67
2023-05-17T07:30:15.075Z,46.61
2023-05-17T07:31:15.037Z,46.87
2023-05-17T07:32:15.116Z,46.80
2023-05-17T07:33:15.238Z,46.99
2023-05-17T07:34:15.284Z,47.02
2023-05-17T07:35:15.245Z,47.18
2023-05-17T07:36:15.284Z,46.99
2023-05-17T07:37:15.292Z,47.06
2023-05-17T07:38:15.298Z,47.04
2023-05-17T07:39:15.375Z,47.08
2023-05-17T07:40:15.317Z,47.14
2023-05-17T07:41:15.362Z,47.16
2023-05-17T07:42:15.384Z,47.14
2023-05-17T07:43:15.369Z,47.09
2023-05-17T07:44:16.099Z,47.29
2023-05-17T07:45:15.457Z,47.44
2023-05-17T07:46:15.434Z,46.44
2023-05-17T07:47:15.501Z,43.67
2023-05-17T07:48:15.725Z,44.47
2023-05-17T07:49:15.720Z,44.35
2023-05-17T07:50:15.653Z,44.38
2023-05-17T07:51:15.633Z,44.10
2023-05-17T07:52:15.683Z,44.00
2023-05-17T07:53:15.755Z,44.05
2023-05-17T07:54:15.731Z,44.60
2023-05-17T07:55:17.036Z,42.09
2023-05-17T07:56:15.768Z,40.80
2023-05-17T07:57:15.776Z,40.83
2023-05-17T07:58:16.768Z,41.63
2023-05-17T07:59:15.770Z,42.49
2023-05-17T08:00:15.753Z,43.01
2023-05-17T08:01:15.756Z,43.56
2023-05-17T08:02:15.704Z,44.78
2023-05-17T08:03:17.184Z,45.34
2023-05-17T08:04:15.746Z,45.50
2023-05-17T08:05:15.714Z,46.03
2023-05-17T08:06:15.827Z,46.08
2023-05-17T08:07:15.678Z,46.32
2023-05-17T08:08:15.685Z,46.45
2023-05-17T08:09:15.657Z,46.71
2023-05-17T08:10:15.660Z,46.92
2023-05-17T08:11:15.882Z,46.90
2023-05-17T08:12:15.632Z,47.04
2023-05-17T08:13:15.660Z,47.02
2023-05-17T08:14:15.760Z,47.12
2023-05-17T08:15:15.756Z,47.39
2023-05-17T08:16:15.737Z,47.35
2023-05-17T08:17:15.794Z,47.38
2023-05-17T08:18:15.911Z,47.45
2023-05-17T08:19:16.087Z,47.73
2023-05-17T08:20:15.955Z,47.62
2023-05-17T08:21:16.016Z,47.75
2023-05-17T08:22:15.993Z,47.65
2023-05-17T08:23:16.099Z,47.80
2023-05-17T08:24:16.092Z,47.70
2023-05-17T08:25:16.066Z,47.83
2023-05-17T08:26:16.134Z,47.77
2023-05-17T08:27:16.168Z,47.88
2023-05-17T08:28:16.575Z,47.91
2023-05-17T08:29:16.210Z,47.94
2023-05-17T08:30:25.336Z,47.98
2023-05-17T08:31:17.258Z,48.18
2023-05-17T08:32:16.184Z,48.22
2023-05-17T08:33:16.250Z,48.21
2023-05-17T08:34:16.232Z,48.29
2023-05-17T08:35:16.166Z,48.28
2023-05-17T08:36:16.146Z,48.42
2023-05-17T08:37:16.189Z,48.42
2023-05-17T08:38:17.025Z,48.44
2023-05-17T08:39:16.159Z,48.40
2023-05-17T08:40:16.194Z,48.89
2023-05-17T08:41:16.194Z,48.87
2023-05-17T08:42:16.204Z,48.87
2023-05-17T08:43:16.577Z,48.83
2023-05-17T08:44:16.317Z,48.82
2023-05-17T08:45:16.231Z,48.89
2023-05-17T08:46:16.271Z,48.89
2023-05-17T08:47:16.306Z,48.01
2023-05-17T08:48:16.358Z,47.86
2023-05-17T08:49:16.380Z,48.20
2023-05-17T08:50:16.346Z,48.10
2023-05-17T08:51:16.364Z,47.56
2023-05-17T08:52:16.404Z,47.30
2023-05-17T08:53:16.647Z,47.75
2023-05-17T08:54:16.477Z,47.88
2023-05-17T08:55:16.659Z,47.60
2023-05-17T08:56:16.496Z,45.28
2023-05-17T08:57:16.499Z,45.93
2023-05-17T08:58:16.541Z,44.41
2023-05-17T08:59:16.573Z,43.74
2023-05-17T09:00:16.578Z,44.34
2023-05-17T09:01:16.644Z,43.90
2023-05-17T09:02:16.736Z,44.92
2023-05-17T09:03:16.794Z,45.36
2023-05-17T09:04:16.761Z,45.66
2023-05-17T09:05:16.890Z,45.43
2023-05-17T09:06:16.868Z,45.91
2023-05-17T09:07:17.423Z,46.25
2023-05-17T09:08:16.965Z,46.35
2023-05-17T09:09:16.984Z,46.50
2023-05-17T09:10:17.038Z,46.54
2023-05-17T09:11:17.044Z,46.68
2023-05-17T09:12:18.032Z,46.87
2023-05-17T09:13:17.049Z,46.94
2023-05-17T09:14:17.036Z,46.93
2023-05-17T09:15:17.046Z,47.01
2023-05-17T09:16:16.981Z,47.11
2023-05-17T09:17:16.969Z,47.10
2023-05-17T09:18:19.416Z,47.21
2023-05-17T09:19:17.354Z,47.19
2023-05-17T09:20:17.305Z,47.31
2023-05-17T09:21:17.232Z,47.26
2023-05-17T09:22:17.256Z,47.32
2023-05-17T09:23:17.613Z,47.41
2023-05-17T09:24:17.372Z,47.42
2023-05-17T09:25:17.447Z,47.53
2023-05-17T09:26:17.490Z,47.59
2023-05-17T09:27:17.580Z,47.76
2023-05-17T09:28:17.638Z,47.39
2023-05-17T09:29:17.634Z,47.67
2023-05-17T09:30:17.697Z,47.74
2023-05-17T09:31:17.764Z,47.74
2023-05-17T09:32:17.757Z,47.75
2023-05-17T09:33:18.986Z,47.58
2023-05-17T09:34:17.878Z,47.75
2023-05-17T09:35:17.885Z,47.67
2023-05-17T09:36:17.933Z,47.72
2023-05-17T09:37:17.998Z,47.67
2023-05-17T09:38:18.012Z,47.67
2023-05-17T09:39:18.073Z,47.64
2023-05-17T09:40:18.101Z,47.75
2023-05-17T09:41:18.147Z,47.73
2023-05-17T09:42:18.284Z,47.69
2023-05-17T09:43:18.257Z,47.74
2023-05-17T09:44:18.228Z,47.88
2023-05-17T09:45:18.258Z,48.17
2023-05-17T09:46:18.307Z,48.10
2023-05-17T09:47:18.394Z,48.37
2023-05-17T09:48:18.513Z,48.46
2023-05-17T09:49:18.473Z,45.58
2023-05-17T09:50:18.512Z,43.48
2023-05-17T09:51:18.508Z,44.58
2023-05-17T09:52:18.517Z,44.67
2023-05-17T09:53:18.604Z,45.35
2023-05-17T09:54:18.571Z,45.73
2023-05-17T09:55:18.558Z,45.94
2023-05-17T09:56:18.584Z,45.89
2023-05-17T09:57:18.583Z,46.00
2023-05-17T09:58:18.667Z,46.22
2023-05-17T09:59:18.639Z,46.47
2023-05-17T10:00:18.685Z,46.26
2023-05-17T10:01:18.657Z,46.51
2023-05-17T10:02:18.687Z,46.47
2023-05-17T10:03:18.812Z,46.57
2023-05-17T10:04:18.740Z,46.57
2023-05-17T10:05:18.776Z,46.56
2023-05-17T10:06:28.143Z,46.53
2023-05-17T10:07:19.783Z,46.58
2023-05-17T10:08:18.780Z,46.41
2023-05-17T10:09:18.781Z,46.47
2023-05-17T10:10:18.746Z,46.49
2023-05-17T10:11:18.723Z,46.52
2023-05-17T10:12:18.736Z,46.47
2023-05-17T10:13:18.773Z,46.60
2023-05-17T10:14:18.750Z,46.59
2023-05-17T10:15:18.731Z,46.61
2023-05-17T10:16:18.742Z,46.60
2023-05-17T10:17:18.702Z,46.50
2023-05-17T10:18:18.788Z,46.52
2023-05-17T10:19:18.774Z,46.54
2023-05-17T10:20:18.863Z,46.57
2023-05-17T10:21:18.693Z,46.61
2023-05-17T10:22:23.097Z,46.53
2023-05-17T10:23:19.692Z,46.57
2023-05-17T10:24:18.677Z,46.50
2023-05-17T10:25:18.656Z,46.53
2023-05-17T10:26:18.651Z,46.47
2023-05-17T10:27:18.675Z,46.39
2023-05-17T10:28:18.653Z,46.34
2023-05-17T10:29:18.606Z,46.34
2023-05-17T10:30:18.702Z,46.20
2023-05-17T10:31:18.618Z,46.17
2023-05-17T10:32:18.638Z,46.10
2023-05-17T10:33:18.712Z,46.00
2023-05-17T10:34:18.801Z,45.90
2023-05-17T10:35:18.620Z,45.94
2023-05-17T10:36:18.609Z,45.78
2023-05-17T10:37:18.667Z,45.79
2023-05-17T10:38:20.444Z,45.77
2023-05-17T10:39:18.697Z,45.74
2023-05-17T10:40:18.708Z,45.73
2023-05-17T10:41:18.705Z,45.70
2023-05-17T10:42:18.658Z,45.65
2023-05-17T10:43:19.137Z,45.70
2023-05-17T10:44:18.658Z,45.76
2023-05-17T10:45:18.648Z,45.73
2023-05-17T10:46:18.760Z,45.82
2023-05-17T10:47:18.652Z,45.70
2023-05-17T10:48:18.698Z,45.80
2023-05-17T10:49:22.131Z,45.70
2023-05-17T10:50:19.645Z,45.66
2023-05-17T10:51:18.625Z,45.74
2023-05-17T10:52:18.598Z,45.64
2023-05-17T10:53:18.593Z,45.66
2023-05-17T10:54:18.685Z,45.69
2023-05-17T10:55:18.573Z,45.70
2023-05-17T10:56:18.583Z,45.61
2023-05-17T10:57:18.551Z,45.54
2023-05-17T10:58:18.572Z,45.47
2023-05-17T10:59:18.596Z,45.43
2023-05-17T11:00:18.534Z,45.44
2023-05-17T11:01:18.583Z,45.41
2023-05-17T11:02:18.645Z,45.37
2023-05-17T11:03:18.703Z,45.35
2023-05-17T11:04:18.737Z,45.36
2023-05-17T11:05:18.870Z,45.34
2023-05-17T11:06:25.363Z,45.31
2023-05-17T11:07:19.825Z,45.29
2023-05-17T11:08:18.840Z,45.31
2023-05-17T11:09:18.860Z,45.27
2023-05-17T11:10:18.823Z,45.28
2023-05-17T11:11:18.801Z,45.23
2023-05-17T11:12:18.816Z,45.21
2023-05-17T11:13:18.802Z,45.21
2023-05-17T11:14:18.775Z,45.25
2023-05-17T11:15:18.780Z,45.18
2023-05-17T11:16:18.782Z,45.17
2023-05-17T11:17:18.856Z,45.17
2023-05-17T11:18:30.519Z,45.09
2023-05-17T11:19:19.918Z,45.17
2023-05-17T11:20:18.994Z,45.12
2023-05-17T11:21:18.846Z,45.10
2023-05-17T11:22:18.868Z,45.06
2023-05-17T11:23:18.889Z,45.07
2023-05-17T11:24:20.888Z,45.06
2023-05-17T11:25:18.854Z,45.05
2023-05-17T11:26:18.850Z,45.09
2023-05-17T11:27:18.793Z,45.06
2023-05-17T11:28:18.793Z,45.02
2023-05-17T11:29:18.845Z,45.02
2023-05-17T11:30:18.801Z,44.99
2023-05-17T11:31:18.803Z,44.96
2023-05-17T11:32:18.797Z,44.97
2023-05-17T11:33:32.438Z,44.97
2023-05-17T11:34:19.887Z,45.01
2023-05-17T11:35:18.761Z,44.97
2023-05-17T11:36:18.778Z,44.92
2023-05-17T11:37:18.739Z,44.93
2023-05-17T11:38:18.756Z,44.93
2023-05-17T11:39:18.754Z,44.96
2023-05-17T11:40:18.759Z,44.96
2023-05-17T11:42:18.716Z,44.96
2023-05-17T11:43:18.717Z,44.94
2023-05-17T11:44:18.684Z,44.88
2023-05-17T11:45:18.692Z,44.91
2023-05-17T11:46:18.693Z,44.87
2023-05-17T11:47:18.673Z,44.84
2023-05-17T11:48:18.797Z,44.83
2023-05-17T11:49:34.331Z,44.81
2023-05-17T11:50:19.648Z,44.82
2023-05-17T11:51:18.617Z,44.81
2023-05-17T11:52:18.631Z,44.74
2023-05-17T11:53:18.645Z,44.77
2023-05-17T11:54:18.616Z,44.76
2023-05-17T11:55:18.624Z,44.73
2023-05-17T11:56:20.620Z,44.72
2023-05-17T11:57:18.617Z,44.72
2023-05-17T11:58:18.622Z,44.71
2023-05-17T11:59:18.581Z,44.65
2023-05-17T12:00:18.576Z,44.66
2023-05-17T12:01:18.624Z,44.66
2023-05-17T12:02:18.541Z,44.65
2023-05-17T12:03:18.573Z,44.61
2023-05-17T12:04:18.582Z,44.60
2023-05-17T12:05:18.563Z,44.61
2023-05-17T12:06:18.739Z,44.55
2023-05-17T12:07:18.533Z,44.59
2023-05-17T12:08:18.557Z,44.53
2023-05-17T12:09:18.559Z,44.53
2023-05-17T12:10:18.580Z,44.58
2023-05-17T12:11:18.505Z,44.52
2023-05-17T12:12:18.532Z,44.56
2023-05-17T12:13:18.496Z,44.52
2023-05-17T12:14:18.505Z,44.49
2023-05-17T12:15:18.483Z,44.49
2023-05-17T12:16:18.524Z,44.48
2023-05-17T12:17:18.461Z,44.49
2023-05-17T12:18:18.537Z,44.51
2023-05-17T12:19:18.536Z,44.48
2023-05-17T12:20:18.543Z,44.44
2023-05-17T12:21:18.425Z,44.42
2023-05-17T12:22:18.474Z,44.43
2023-05-17T12:23:18.442Z,44.42
2023-05-17T12:24:18.500Z,44.43
2023-05-17T12:25:18.396Z,44.41
2023-05-17T12:26:18.414Z,44.08
2023-05-17T12:27:18.399Z,43.96
2023-05-17T12:28:18.405Z,43.89
2023-05-17T12:29:18.688Z,43.71
2023-05-17T12:30:18.381Z,43.72
2023-05-17T12:31:18.373Z,43.76
2023-05-17T12:32:18.381Z,44.03
2023-05-17T12:33:18.551Z,44.15
2023-05-17T12:34:18.348Z,44.17
2023-05-17T12:35:18.337Z,44.17
2023-05-17T12:36:18.323Z,44.22
2023-05-17T12:37:18.330Z,44.22
2023-05-17T12:38:18.307Z,44.22
2023-05-17T12:39:18.303Z,44.19
2023-05-17T12:40:18.318Z,44.20
2023-05-17T12:41:18.278Z,44.17
2023-05-17T12:42:18.300Z,44.14
2023-05-17T12:43:18.295Z,44.11
2023-05-17T12:44:18.311Z,44.12
2023-05-17T12:45:19.152Z,44.11
2023-05-17T12:46:18.289Z,44.08
2023-05-17T12:47:18.293Z,44.09
2023-05-17T12:48:18.400Z,44.07
2023-05-17T12:49:18.281Z,44.04
2023-05-17T12:50:18.261Z,44.06
2023-05-17T12:51:18.317Z,44.06
2023-05-17T12:52:18.319Z,44.04
2023-05-17T12:53:18.327Z,44.01
2023-05-17T12:54:18.469Z,44.01